Time;durP1;ratioP1;P1;durP2;ratioP2;P2;SDS_P1;SDS_P2;PMS_P1;PMS_P2;Temp;Humidity;BMP_temperature;BMP_pressure;BME280_temperature;BME280_humidity;BME280_pressure;Samples;Min_cycle;Max_cycle;Signal;HPM_P1;HPM_P2
2022/01/25 00:08:41;;;;;;;22.47;11.87;;;5.30;82.90;5.20;97845.00;;;;5037938;28;20200;-85
2022/01/25 00:25:42;;;;;;;15.97;10.50;;;5.40;83.10;5.20;97835.00;;;;5036030;28;20203;-85
2022/01/25 00:28:19;;;;;;;20.77;10.50;;;5.40;83.00;5.20;97836.00;;;;5052174;28;20243;-86
2022/01/25 00:30:59;;;;;;;20.67;10.23;;;5.40;83.20;5.30;97823.00;;;;5052746;28;20223;-86
2022/01/25 00:33:27;;;;;;;19.07;10.27;;;5.40;83.20;5.30;97816.00;;;;5052002;28;20673;-85
2022/01/25 00:35:54;;;;;;;28.60;11.17;;;5.40;83.20;5.30;97826.00;;;;5054414;28;20193;-86
2022/01/25 00:38:23;;;;;;;26.80;10.27;;;5.40;83.20;5.30;97827.00;;;;5052648;28;20212;-85
2022/01/25 00:40:50;;;;;;;23.53;10.67;;;5.40;82.90;5.30;97833.00;;;;5052134;28;20227;-86
2022/01/25 00:43:19;;;;;;;17.73;10.37;;;5.40;83.00;5.30;97818.00;;;;5052250;28;20200;-85
2022/01/25 00:45:46;;;;;;;30.27;10.43;;;5.40;82.90;5.30;97826.00;;;;5052080;28;20208;-85
2022/01/25 00:48:19;;;;;;;29.47;10.80;;;5.40;82.90;5.30;97816.00;;;;5046808;28;20212;-85
2022/01/25 00:50:46;;;;;;;19.47;10.40;;;5.40;83.00;5.30;97826.00;;;;5041968;28;20213;-85
2022/01/25 00:55:59;;;;;;;17.57;10.00;;;5.40;82.80;5.20;97818.00;;;;5048640;28;20206;-85
2022/01/25 00:58:26;;;;;;;34.83;10.43;;;5.30;82.70;5.20;97832.00;;;;5039212;28;20197;-85
2022/01/25 01:00:53;;;;;;;34.00;11.13;;;5.30;82.60;5.20;97823.00;;;;5031710;28;20221;-85
2022/01/25 01:03:20;;;;;;;23.87;10.13;;;5.30;82.60;5.10;97828.00;;;;5047377;28;20197;-85
2022/01/25 01:05:47;;;;;;;34.23;10.37;;;5.30;82.60;5.10;97838.00;;;;5051625;28;20673;-85
2022/01/25 01:08:14;;;;;;;21.37;9.43;;;5.20;82.60;5.10;97833.00;;;;5052257;28;20292;-85
2022/01/25 01:10:43;;;;;;;19.47;10.23;;;5.20;82.60;5.10;97836.00;;;;5051966;28;20197;-85
2022/01/25 01:13:39;;;;;;;16.13;9.13;;;5.20;82.60;5.10;97827.00;;;;5053584;28;20212;-85
2022/01/25 01:16:33;;;;;;;16.17;8.80;;;5.20;82.70;5.10;97833.00;;;;5051944;28;20207;-85
2022/01/25 01:30:25;;;;;;;17.87;9.13;;;5.20;82.90;5.10;97828.00;;;;5051725;28;20267;-85
2022/01/25 01:36:19;;;;;;;14.03;8.57;;;5.20;83.00;5.10;97822.00;;;;5025362;28;20193;-85
2022/01/25 01:41:45;;;;;;;19.07;10.27;;;5.30;83.10;5.20;97832.00;;;;5031767;28;20224;-85
2022/01/25 01:44:23;;;;;;;24.70;10.47;;;5.20;83.00;5.20;97835.00;;;;5051737;28;20196;-85
2022/01/25 01:47:07;;;;;;;16.77;10.53;;;5.20;83.00;5.20;97836.00;;;;5051152;28;20196;-85
2022/01/25 01:49:40;;;;;;;16.83;10.23;;;5.20;83.10;5.20;97832.00;;;;5052624;28;20631;-86
2022/01/25 01:52:08;;;;;;;14.10;9.10;;;5.20;83.00;5.20;97830.00;;;;5051509;28;20756;-85
2022/01/25 01:54:37;;;;;;;28.30;9.60;;;5.20;83.00;5.20;97839.00;;;;5051471;28;20201;-85
2022/01/25 01:57:07;;;;;;;11.77;8.33;;;5.20;82.90;5.20;97839.00;;;;5049909;28;20193;-85
2022/01/25 01:59:35;;;;;;;17.30;8.17;;;5.30;83.00;5.20;97828.00;;;;5050548;28;20555;-86
2022/01/25 02:02:04;;;;;;;24.63;9.10;;;5.30;83.10;5.20;97818.00;;;;5051415;28;20212;-85
2022/01/25 02:04:31;;;;;;;18.90;8.63;;;5.30;83.20;5.20;97815.00;;;;5051232;28;20205;-85
2022/01/25 02:06:58;;;;;;;12.50;8.47;;;5.30;83.00;5.20;97819.00;;;;5051286;28;20204;-86
2022/01/25 02:09:25;;;;;;;18.83;8.57;;;5.20;83.00;5.20;97821.00;;;;5049133;28;20201;-85
2022/01/25 02:11:53;;;;;;;23.33;9.90;;;5.30;82.90;5.20;97816.00;;;;5065194;28;20220;-86
2022/01/25 02:14:20;;;;;;;13.53;8.97;;;5.30;82.90;5.20;97816.00;;;;5057893;28;20226;-85
2022/01/25 02:17:03;;;;;;;15.57;8.87;;;5.30;82.60;5.20;97813.00;;;;5054350;28;20683;-85
2022/01/25 02:22:31;;;;;;;10.43;7.77;;;5.30;82.90;5.20;97813.00;;;;5034875;28;20263;-85
2022/01/25 02:24:59;;;;;;;13.50;8.73;;;5.30;83.00;5.20;97806.00;;;;5042675;28;20204;-86
2022/01/25 02:27:27;;;;;;;17.57;8.93;;;5.30;83.00;5.20;97816.00;;;;5054372;28;20200;-85
2022/01/25 02:29:54;;;;;;;15.33;8.93;;;5.40;83.20;5.20;97803.00;;;;5054676;28;20208;-86
2022/01/25 02:32:22;;;;;;;18.63;9.17;;;5.30;83.00;5.20;97808.00;;;;5054194;28;20716;-85
2022/01/25 02:34:49;;;;;;;21.83;9.20;;;5.30;82.90;5.20;97811.00;;;;5054396;28;20196;-86
2022/01/25 02:37:19;;;;;;;14.87;8.87;;;5.30;82.90;5.20;97813.00;;;;5054455;28;20192;-85
2022/01/25 02:39:47;;;;;;;19.17;9.40;;;5.30;82.90;5.30;97812.00;;;;5054385;28;20200;-85
2022/01/25 02:42:17;;;;;;;19.57;8.93;;;5.30;83.60;5.20;97806.00;;;;5054237;28;20303;-85
2022/01/25 02:44:44;;;;;;;17.37;8.73;;;5.30;83.10;5.30;97802.00;;;;5054399;28;20204;-85
2022/01/25 02:49:58;;;;;;;15.70;8.90;;;5.30;82.90;5.30;97802.00;;;;5054339;28;20601;-85
2022/01/25 02:52:27;;;;;;;26.10;10.07;;;5.30;83.00;5.30;97804.00;;;;5054316;28;20220;-85
2022/01/25 02:54:55;;;;;;;13.60;8.47;;;5.30;83.60;5.30;97801.00;;;;5053937;28;20209;-85
2022/01/25 02:57:23;;;;;;;18.27;9.00;;;5.30;82.60;5.20;97798.00;;;;5054756;28;20542;-86
2022/01/25 02:59:50;;;;;;;20.80;9.30;;;5.30;82.60;5.30;97803.00;;;;5060022;28;20633;-85
2022/01/25 03:02:18;;;;;;;20.47;9.13;;;5.30;82.60;5.20;97801.00;;;;5059133;28;20223;-85
2022/01/25 03:04:45;;;;;;;17.10;9.37;;;5.30;82.50;5.30;97806.00;;;;5056008;28;20208;-85
2022/01/25 03:07:13;;;;;;;17.83;8.87;;;5.30;82.60;5.20;97799.00;;;;5053586;28;20564;-85
2022/01/25 03:09:41;;;;;;;34.03;10.43;;;5.30;82.60;5.20;97803.00;;;;5054225;28;20201;-85
2022/01/25 03:12:14;;;;;;;21.03;10.37;;;5.30;82.60;5.20;97804.00;;;;5052806;28;20311;-86
2022/01/25 03:14:58;;;;;;;19.73;8.80;;;5.30;82.30;5.20;97802.00;;;;5052477;28;22288;-85
2022/01/25 03:17:29;;;;;;;16.63;8.77;;;5.30;82.50;5.20;97800.00;;;;5053945;28;20237;-85
2022/01/25 03:20:07;;;;;;;37.43;9.77;;;5.30;82.50;5.20;97795.00;;;;5054097;28;20185;-85
2022/01/25 03:22:55;;;;;;;33.10;9.83;;;5.30;82.70;5.20;97802.00;;;;5053407;28;20220;-85
2022/01/25 03:25:27;;;;;;;18.93;9.00;;;5.30;82.60;5.20;97805.00;;;;5053509;28;20197;-85
2022/01/25 03:27:55;;;;;;;18.93;9.90;;;5.30;82.60;5.20;97793.00;;;;5045292;28;20712;-85
2022/01/25 03:30:22;;;;;;;23.87;10.30;;;5.40;82.80;5.10;97796.00;;;;5033674;28;20229;-85
2022/01/25 03:32:49;;;;;;;16.67;9.60;;;5.20;82.70;5.10;97793.00;;;;5033355;28;20201;-85
2022/01/25 03:35:16;;;;;;;19.50;10.00;;;5.20;82.30;5.10;97787.00;;;;5046579;28;20199;-85
2022/01/25 03:37:43;;;;;;;18.97;9.93;;;5.20;82.60;5.10;97780.00;;;;5053504;28;20662;-85
2022/01/25 03:40:12;;;;;;;15.23;9.13;;;5.20;82.60;5.10;97777.00;;;;5053994;28;20197;-85
2022/01/25 03:42:41;;;;;;;16.10;9.33;;;5.20;82.50;5.10;97771.00;;;;5053285;28;20275;-85
2022/01/25 03:45:18;;;;;;;20.83;10.03;;;5.20;82.70;5.10;97781.00;;;;5052866;28;20204;-85
2022/01/25 03:47:58;;;;;;;23.30;9.93;;;5.20;82.90;5.10;97774.00;;;;5053387;28;20200;-85
2022/01/25 03:50:25;;;;;;;15.93;9.73;;;5.20;83.00;5.10;97771.00;;;;5053474;28;20200;-86
2022/01/25 03:52:56;;;;;;;34.30;10.50;;;5.20;83.10;5.20;97777.00;;;;5052837;28;20204;-85
2022/01/25 03:55:23;;;;;;;14.03;8.73;;;5.20;83.20;5.20;97778.00;;;;5052763;28;20220;-85
2022/01/25 03:57:51;;;;;;;25.17;14.70;;;5.20;83.10;5.20;97768.00;;;;5051083;28;20197;-85
2022/01/25 04:00:18;;;;;;;20.47;12.23;;;5.20;83.30;5.20;97767.00;;;;5052998;28;20197;-85
2022/01/25 04:02:52;;;;;;;21.33;11.03;;;5.30;83.30;5.20;97769.00;;;;5052854;28;20215;-85
2022/01/25 04:05:24;;;;;;;20.60;9.87;;;5.30;83.30;5.30;97762.00;;;;5053075;28;20191;-85
2022/01/25 04:07:52;;;;;;;18.03;9.73;;;5.30;83.20;5.30;97767.00;;;;5053155;28;20181;-85
2022/01/25 04:10:19;;;;;;;19.67;9.70;;;5.30;83.20;5.30;97765.00;;;;5053213;28;20200;-85
2022/01/25 04:12:47;;;;;;;20.97;9.63;;;5.30;83.20;5.30;97751.00;;;;5052656;28;20727;-85
2022/01/25 04:15:16;;;;;;;26.53;12.67;;;5.30;83.10;5.20;97748.00;;;;5054558;28;20584;-85
2022/01/25 04:17:48;;;;;;;21.47;10.60;;;5.30;83.00;5.20;97750.00;;;;5052100;28;20276;-85
2022/01/25 04:20:19;;;;;;;21.23;13.10;;;5.40;82.90;5.20;97749.00;;;;5052924;28;20272;-85
2022/01/25 04:25:31;;;;;;;24.00;10.30;;;5.30;82.80;5.10;97746.00;;;;5072183;28;20195;-85
2022/01/25 04:27:58;;;;;;;15.57;9.20;;;5.30;82.90;5.10;97742.00;;;;5044254;28;20194;-86
2022/01/25 04:30:27;;;;;;;16.87;10.03;;;5.30;82.70;5.10;97735.00;;;;5032634;28;20196;-85
2022/01/25 04:32:59;;;;;;;17.30;9.27;;;5.30;82.90;5.20;97743.00;;;;5031986;28;20663;-85
2022/01/25 04:35:45;;;;;;;17.90;10.17;;;5.30;83.20;5.20;97739.00;;;;5031682;28;20258;-85
2022/01/25 04:49:16;;;;;;;17.50;10.87;;;5.30;83.20;5.20;97726.00;;;;5052181;28;20188;-85
2022/01/25 04:51:52;;;;;;;23.23;11.30;;;5.30;83.30;5.20;97725.00;;;;5053245;28;20725;-86
2022/01/25 04:54:35;;;;;;;18.73;10.00;;;5.30;83.40;5.20;97725.00;;;;5052198;28;20290;-86
2022/01/25 04:57:19;;;;;;;15.17;9.37;;;6.30;84.00;5.30;97727.00;;;;5051987;28;20219;-85
2022/01/25 04:59:52;;;;;;;21.47;9.93;;;5.30;83.20;5.30;97746.00;;;;5051914;28;20654;-85
2022/01/25 05:02:32;;;;;;;17.17;9.70;;;5.40;83.40;5.30;97738.00;;;;5058448;28;20294;-85
2022/01/25 05:05:04;;;;;;;18.63;10.17;;;5.40;84.10;5.30;97732.00;;;;5044746;28;20291;-85
2022/01/25 05:07:38;;;;;;;21.20;10.07;;;5.40;83.30;5.30;97740.00;;;;5051680;28;20189;-85
2022/01/25 05:10:07;;;;;;;17.80;10.07;;;5.40;83.50;5.40;97736.00;;;;5052032;28;20618;-85
2022/01/25 05:12:41;;;;;;;19.20;10.57;;;5.40;83.50;5.40;97739.00;;;;5051554;28;20224;-85
2022/01/25 05:15:21;;;;;;;25.17;10.63;;;5.40;83.30;5.40;97742.00;;;;5046099;28;20821;-85
2022/01/25 05:18:05;;;;;;;22.40;11.27;;;5.40;83.20;5.40;97738.00;;;;5049759;28;20704;-85
2022/01/25 05:23:17;;;;;;;21.13;10.30;;;5.50;83.30;5.40;97732.00;;;;5051817;28;20196;-85
2022/01/25 05:25:44;;;;;;;20.33;10.83;;;5.50;83.20;5.40;97740.00;;;;5051317;28;20279;-85
2022/01/25 05:28:11;;;;;;;32.90;11.03;;;5.50;83.10;5.40;97741.00;;;;5050997;28;20211;-83
2022/01/25 05:30:39;;;;;;;18.27;10.30;;;5.50;83.30;5.40;97735.00;;;;5051498;28;20189;-85
2022/01/25 05:33:08;;;;;;;22.67;10.60;;;5.50;83.30;5.40;97744.00;;;;5048479;28;20185;-85
2022/01/25 05:35:35;;;;;;;18.93;10.40;;;5.50;83.40;5.40;97738.00;;;;5031637;28;20300;-85
2022/01/25 05:38:02;;;;;;;24.57;10.07;;;5.50;84.10;5.50;97746.00;;;;5050691;28;20193;-85
2022/01/25 05:40:42;;;;;;;20.13;10.43;;;5.50;83.40;5.50;97748.00;;;;5051584;28;20204;-85
2022/01/25 05:46:01;;;;;;;22.07;10.73;;;5.60;83.50;5.50;97743.00;;;;5043809;28;20208;-86
2022/01/25 05:48:31;;;;;;;19.17;10.17;;;5.60;83.70;5.50;97745.00;;;;5054441;28;20732;-86
2022/01/25 05:50:59;;;;;;;17.70;9.80;;;5.60;83.60;5.50;97745.00;;;;5054955;28;20230;-86
2022/01/25 05:53:27;;;;;;;18.63;9.67;;;5.60;83.50;5.60;97749.00;;;;5054222;28;20192;-85
2022/01/25 05:55:55;;;;;;;19.37;9.60;;;5.60;83.40;5.60;97751.00;;;;5054578;28;20247;-85
2022/01/25 05:58:23;;;;;;;22.20;10.03;;;5.60;83.40;5.60;97765.00;;;;5048678;28;20204;-86
2022/01/25 06:00:50;;;;;;;19.93;10.27;;;5.70;83.50;5.60;97756.00;;;;5055402;28;20215;-85
2022/01/25 06:03:17;;;;;;;19.67;10.80;;;5.70;83.60;5.60;97751.00;;;;5055599;28;20207;-86
2022/01/25 06:05:46;;;;;;;21.43;10.57;;;5.60;83.30;5.70;97746.00;;;;5055240;28;20634;-84
2022/01/25 06:08:14;;;;;;;20.13;11.00;;;5.70;83.40;5.70;97745.00;;;;5035169;28;20194;-85
2022/01/25 06:10:41;;;;;;;20.80;9.97;;;5.70;83.50;5.70;97737.00;;;;5035341;28;20255;-86
2022/01/25 06:13:08;;;;;;;18.57;10.23;;;5.70;83.20;5.70;97740.00;;;;5035970;28;20186;-85
2022/01/25 06:15:35;;;;;;;21.77;10.93;;;5.70;83.40;5.70;97742.00;;;;5049033;28;20231;-84
2022/01/25 06:18:03;;;;;;;21.10;10.20;;;5.80;83.70;5.70;97731.00;;;;5055026;28;20280;-84
2022/01/25 06:20:33;;;;;;;20.83;10.27;;;5.70;83.10;5.70;97724.00;;;;5054921;28;20307;-84
2022/01/25 06:23:02;;;;;;;22.07;10.27;;;5.80;83.70;5.70;97727.00;;;;5056229;28;20192;-84
2022/01/25 06:25:29;;;;;;;19.53;9.57;;;5.70;82.90;5.60;97733.00;;;;5054474;28;20692;-83
2022/01/25 06:27:56;;;;;;;17.07;9.70;;;5.70;83.10;5.70;97740.00;;;;5046745;28;20220;-85
2022/01/25 06:30:23;;;;;;;14.47;8.60;;;5.70;83.10;5.70;97740.00;;;;5036125;28;20201;-85
2022/01/25 06:32:50;;;;;;;16.50;8.90;;;5.70;83.10;5.70;97739.00;;;;5054616;28;20692;-85
2022/01/25 06:35:18;;;;;;;17.23;9.80;;;5.80;83.20;5.70;97739.00;;;;5054752;28;20236;-83
2022/01/25 06:37:46;;;;;;;15.00;8.90;;;5.70;83.20;5.70;97742.00;;;;5054755;28;20197;-85
2022/01/25 06:40:16;;;;;;;16.60;9.07;;;5.80;82.90;5.70;97744.00;;;;5054301;28;20185;-85
2022/01/25 06:42:43;;;;;;;15.77;9.00;;;5.80;83.10;5.70;97741.00;;;;5054785;28;20308;-84
2022/01/25 06:45:15;;;;;;;16.27;8.87;;;5.80;83.10;5.70;97750.00;;;;5055046;28;20199;-84
2022/01/25 06:47:43;;;;;;;15.53;8.50;;;5.80;83.00;5.70;97749.00;;;;5049305;28;20193;-87
2022/01/25 06:50:12;;;;;;;12.23;7.87;;;5.70;82.80;5.70;97759.00;;;;5055333;28;20189;-83
2022/01/25 06:52:41;;;;;;;15.27;8.27;;;5.70;82.90;5.70;97753.00;;;;5055069;28;20338;-83
2022/01/25 06:55:12;;;;;;;15.30;8.20;;;5.70;82.90;5.80;97762.00;;;;5055741;28;20224;-88
2022/01/25 06:57:41;;;;;;;15.47;7.13;;;5.70;83.10;5.80;97759.00;;;;5053003;28;20205;-82
2022/01/25 07:00:13;;;;;;;11.07;6.80;;;5.80;83.00;5.80;97767.00;;;;5055689;28;20196;-84
2022/01/25 07:02:40;;;;;;;12.97;7.30;;;5.70;82.50;5.80;97775.00;;;;5053053;28;20225;-81
2022/01/25 07:05:08;;;;;;;14.47;7.67;;;5.70;82.50;5.80;97772.00;;;;5055249;28;20550;-83
2022/01/25 07:07:36;;;;;;;20.63;6.90;;;5.70;82.80;5.80;97770.00;;;;5054643;28;20569;-83
2022/01/25 07:10:06;;;;;;;13.27;7.23;;;5.70;82.30;5.70;97765.00;;;;5053362;28;20201;-84
2022/01/25 07:12:33;;;;;;;13.47;6.83;;;5.70;82.40;5.70;97775.00;;;;5042879;28;20613;-84
2022/01/25 07:15:02;;;;;;;11.73;6.80;;;5.60;82.00;5.70;97779.00;;;;5050123;28;20588;-82
2022/01/25 07:17:33;;;;;;;10.97;6.60;;;5.60;82.20;5.70;97783.00;;;;5055030;28;20193;-83
2022/01/25 07:20:00;;;;;;;11.60;6.60;;;5.60;82.60;5.70;97784.00;;;;5043750;28;20190;-82
2022/01/25 07:22:27;;;;;;;8.83;6.37;;;5.60;83.00;5.70;97784.00;;;;5035264;28;20236;-82
2022/01/25 07:24:54;;;;;;;9.53;5.60;;;5.60;82.20;5.70;97783.00;;;;5052796;28;20203;-81
2022/01/25 07:27:21;;;;;;;12.47;6.23;;;5.60;82.30;5.70;97785.00;;;;5058066;28;20203;-85
2022/01/25 07:29:48;;;;;;;14.20;7.13;;;5.60;82.50;5.70;97781.00;;;;5065075;28;20202;-81
2022/01/25 07:32:17;;;;;;;15.67;7.37;;;5.60;82.80;5.70;97786.00;;;;5056003;28;20588;-84
2022/01/25 07:34:44;;;;;;;13.93;7.80;;;5.70;83.40;5.70;97781.00;;;;5053092;28;20224;-84
2022/01/25 07:37:11;;;;;;;15.57;6.77;;;5.60;82.80;5.70;97777.00;;;;5052398;28;20195;-85
2022/01/25 07:39:38;;;;;;;14.13;7.53;;;5.60;82.50;5.70;97787.00;;;;5049916;28;20194;-85
2022/01/25 07:42:06;;;;;;;12.50;7.17;;;5.60;82.40;5.70;97775.00;;;;5054210;28;20220;-86
2022/01/25 07:44:36;;;;;;;12.10;6.90;;;5.60;82.40;5.70;97782.00;;;;5052311;28;20200;-86
2022/01/25 07:47:04;;;;;;;15.37;8.37;;;5.60;82.40;5.70;97777.00;;;;5050614;28;20193;-87
2022/01/25 07:49:33;;;;;;;13.70;7.40;;;5.60;82.70;5.70;97777.00;;;;5039256;28;20207;-85
2022/01/25 07:52:00;;;;;;;13.80;7.47;;;5.70;82.50;5.70;97779.00;;;;5054312;28;20304;-85
2022/01/25 07:54:28;;;;;;;13.17;7.03;;;5.60;82.60;5.80;97778.00;;;;5053759;28;20732;-85
2022/01/25 07:56:56;;;;;;;19.77;8.97;;;5.60;82.50;5.80;97786.00;;;;5046072;28;20653;-86
2022/01/25 07:59:23;;;;;;;16.33;8.03;;;5.60;82.70;5.80;97795.00;;;;5049029;28;20263;-85
2022/01/25 08:01:53;;;;;;;11.93;7.43;;;5.60;82.60;5.80;97795.00;;;;5052601;28;20212;-86
2022/01/25 08:04:42;;;;;;;17.17;7.33;;;5.70;82.60;5.80;97792.00;;;;5054886;28;20196;-84
2022/01/25 08:07:09;;;;;;;11.33;6.83;;;5.80;82.60;5.80;97799.00;;;;5032832;28;20239;-86
2022/01/25 08:09:36;;;;;;;12.73;7.43;;;5.70;82.60;5.90;97791.00;;;;5050629;28;20677;-85
2022/01/25 08:12:04;;;;;;;10.50;6.90;;;5.70;82.80;5.90;97790.00;;;;5052298;28;20235;-85
2022/01/25 08:14:31;;;;;;;13.03;6.63;;;5.80;82.80;5.90;97798.00;;;;5051919;28;20213;-85
2022/01/25 08:16:58;;;;;;;12.33;7.53;;;5.70;82.40;5.90;97778.00;;;;5052025;28;20203;-85
2022/01/25 08:19:25;;;;;;;10.60;5.70;;;5.80;83.20;5.90;97783.00;;;;5040112;28;20208;-86
2022/01/25 08:21:54;;;;;;;12.27;7.43;;;5.80;82.70;5.90;97780.00;;;;5043982;28;20223;-85
2022/01/25 08:24:21;;;;;;;13.83;7.87;;;5.80;82.80;5.90;97779.00;;;;5052177;28;20196;-85
2022/01/25 08:26:49;;;;;;;15.57;6.87;;;5.90;82.80;5.90;97788.00;;;;5052413;28;20204;-86
2022/01/25 08:29:16;;;;;;;13.07;7.07;;;5.80;82.40;5.90;97790.00;;;;5049165;28;20557;-86
2022/01/25 08:31:43;;;;;;;10.87;6.77;;;5.90;82.60;5.90;97788.00;;;;5046855;28;20228;-85
2022/01/25 08:34:12;;;;;;;13.70;7.50;;;5.80;82.30;5.90;97777.00;;;;5060770;28;20203;-86
2022/01/25 08:36:41;;;;;;;12.57;7.40;;;5.80;82.40;6.00;97770.00;;;;5069676;28;20741;-85
2022/01/25 08:39:09;;;;;;;14.50;6.67;;;5.80;82.70;6.00;97781.00;;;;5058049;28;20202;-86
2022/01/25 08:41:37;;;;;;;12.37;7.17;;;5.90;82.40;5.90;97781.00;;;;5065624;28;20223;-86
2022/01/25 08:44:04;;;;;;;10.17;6.53;;;5.80;82.70;5.90;97777.00;;;;5052170;28;20199;-86
2022/01/25 08:46:32;;;;;;;14.03;6.90;;;5.80;82.20;5.90;97773.00;;;;5054763;28;20203;-86
2022/01/25 08:49:00;;;;;;;11.67;6.73;;;5.80;82.40;5.90;97782.00;;;;5069405;28;20668;-85
2022/01/25 08:51:27;;;;;;;13.37;6.83;;;5.90;82.30;6.00;97773.00;;;;5060709;28;20215;-87
2022/01/25 08:53:54;;;;;;;11.60;7.43;;;5.90;82.50;6.00;97783.00;;;;5051700;28;20196;-85
2022/01/25 08:56:22;;;;;;;10.73;6.93;;;5.90;82.20;6.00;97786.00;;;;5047464;28;20224;-87
2022/01/25 08:58:50;;;;;;;12.90;6.97;;;5.90;82.60;6.00;97787.00;;;;5051868;28;20666;-86
2022/01/25 09:01:17;;;;;;;13.33;7.60;;;5.90;82.40;6.00;97788.00;;;;5055051;28;20583;-85
2022/01/25 09:03:45;;;;;;;10.40;6.50;;;5.90;82.30;6.00;97780.00;;;;5060462;28;20197;-87
2022/01/25 09:06:12;;;;;;;11.03;7.33;;;5.90;82.20;6.00;97778.00;;;;5055310;28;20196;-84
2022/01/25 09:08:40;;;;;;;11.40;7.07;;;5.90;82.10;6.00;97781.00;;;;5064322;28;20188;-85
2022/01/25 09:11:07;;;;;;;13.60;7.97;;;5.90;81.90;6.00;97777.00;;;;5050785;28;20227;-85
2022/01/25 09:13:37;;;;;;;13.30;6.90;;;5.90;82.10;6.00;97787.00;;;;5043986;28;20193;-85
2022/01/25 09:16:06;;;;;;;13.13;7.20;;;6.00;82.30;6.10;97789.00;;;;5045176;28;20256;-87
2022/01/25 09:18:36;;;;;;;10.03;6.63;;;6.00;82.30;6.10;97798.00;;;;5050155;28;20706;-85
2022/01/25 09:21:03;;;;;;;11.23;7.13;;;6.00;82.40;6.20;97784.00;;;;5059353;28;20395;-85
2022/01/25 09:23:31;;;;;;;15.47;8.13;;;6.00;82.20;6.20;97798.00;;;;5055298;28;20214;-85
2022/01/25 09:25:58;;;;;;;11.80;7.10;;;6.10;82.40;6.30;97793.00;;;;5043005;28;20221;-86
2022/01/25 09:28:25;;;;;;;11.53;6.40;;;6.10;82.60;6.30;97788.00;;;;5062116;28;20196;-86
2022/01/25 09:30:54;;;;;;;9.63;6.30;;;6.10;82.00;6.30;97801.00;;;;5061463;28;20212;-86
2022/01/25 09:33:22;;;;;;;9.37;6.30;;;6.10;82.30;6.30;97806.00;;;;5059601;28;20196;-86
2022/01/25 09:35:49;;;;;;;8.20;5.47;;;6.10;82.20;6.30;97805.00;;;;5051224;28;20213;-86
2022/01/25 09:38:17;;;;;;;11.10;6.23;;;6.20;81.80;6.30;97800.00;;;;5055024;28;20189;-86
2022/01/25 09:40:44;;;;;;;9.33;5.80;;;6.20;82.30;6.40;97806.00;;;;5053851;28;20217;-85
2022/01/25 09:43:11;;;;;;;8.77;5.80;;;6.20;81.90;6.40;97799.00;;;;5041722;28;20534;-86
2022/01/25 09:45:42;;;;;;;11.00;7.27;;;6.20;82.20;6.40;97807.00;;;;5054477;28;20619;-86
2022/01/25 09:48:12;;;;;;;9.47;6.30;;;6.20;82.80;6.40;97810.00;;;;5054775;28;20199;-86
2022/01/25 09:50:40;;;;;;;10.67;6.87;;;6.20;82.20;6.40;97813.00;;;;5048568;28;20200;-85
2022/01/25 09:53:08;;;;;;;13.13;6.87;;;6.20;82.00;6.40;97812.00;;;;5048098;28;20192;-85
2022/01/25 09:55:39;;;;;;;9.80;6.80;;;6.20;81.80;6.40;97802.00;;;;5051915;28;20259;-86
2022/01/25 09:58:07;;;;;;;11.40;6.50;;;6.20;81.40;6.40;97814.00;;;;5055357;28;20208;-86
2022/01/25 10:00:38;;;;;;;10.50;6.63;;;6.20;81.30;6.40;97811.00;;;;5038462;28;20197;-86
2022/01/25 10:03:12;;;;;;;11.97;7.33;;;6.20;81.30;6.40;97810.00;;;;5038279;28;20292;-84
2022/01/25 10:05:44;;;;;;;13.00;8.20;;;6.20;81.60;6.40;97800.00;;;;5054116;28;20611;-85
2022/01/25 10:08:14;;;;;;;9.93;6.77;;;6.20;81.60;6.40;97784.00;;;;5055020;28;20193;-86
2022/01/25 10:10:45;;;;;;;11.20;7.43;;;6.20;81.50;6.40;97787.00;;;;5060925;28;20287;-85
2022/01/25 10:13:20;;;;;;;10.57;7.13;;;6.30;82.00;6.40;97789.00;;;;5047671;28;20578;-86
2022/01/25 10:15:47;;;;;;;12.87;7.67;;;6.30;82.00;6.50;97797.00;;;;5047883;28;20220;-85
2022/01/25 10:18:16;;;;;;;11.20;7.13;;;6.30;82.10;6.50;97793.00;;;;5035097;28;20216;-85
2022/01/25 10:20:47;;;;;;;12.87;8.27;;;6.30;82.00;6.50;97794.00;;;;5043209;28;20587;-85
2022/01/25 10:23:18;;;;;;;11.83;8.20;;;6.30;81.70;6.60;97801.00;;;;5050435;28;20194;-85
2022/01/25 10:25:48;;;;;;;15.20;8.50;;;6.30;81.70;6.60;97797.00;;;;5043590;28;20728;-86
2022/01/25 10:28:22;;;;;;;11.97;8.10;;;6.30;81.40;6.60;97793.00;;;;5053970;28;20189;-86
2022/01/25 10:30:53;;;;;;;11.07;8.23;;;6.40;81.60;6.60;97800.00;;;;5054224;28;20236;-86
2022/01/25 10:33:26;;;;;;;13.90;8.93;;;6.40;81.60;6.70;97795.00;;;;5053593;28;20250;-86
2022/01/25 10:35:56;;;;;;;13.37;8.37;;;6.40;81.50;6.70;97796.00;;;;5054258;28;20653;-85
2022/01/25 10:38:28;;;;;;;14.27;8.87;;;6.40;81.60;6.70;97788.00;;;;5054430;28;20203;-86
2022/01/25 10:41:03;;;;;;;11.57;7.87;;;6.50;81.80;6.70;97777.00;;;;5053929;28;20224;-86
2022/01/25 10:43:32;;;;;;;14.47;9.33;;;6.50;81.40;6.70;97772.00;;;;5053980;28;20189;-86
2022/01/25 10:46:16;;;;;;;13.17;9.13;;;6.50;81.70;6.70;97770.00;;;;5054069;28;20204;-86
2022/01/25 10:48:50;;;;;;;15.03;9.37;;;6.50;81.40;6.80;97774.00;;;;5053764;28;20193;-85
2022/01/25 10:51:22;;;;;;;12.27;8.73;;;6.60;81.70;6.80;97766.00;;;;5051969;28;20209;-86
2022/01/25 10:54:02;;;;;;;14.90;9.60;;;6.60;81.50;6.80;97779.00;;;;5054446;28;20201;-86
2022/01/25 10:56:38;;;;;;;13.47;9.67;;;6.60;81.20;6.90;97782.00;;;;5053272;28;20593;-86
2022/01/25 10:59:08;;;;;;;15.13;9.43;;;6.60;81.50;6.90;97787.00;;;;5054053;28;20204;-86
2022/01/25 11:01:39;;;;;;;14.63;9.70;;;7.40;81.80;6.90;97791.00;;;;5054207;28;20213;-86
2022/01/25 11:04:11;;;;;;;14.13;9.50;;;6.60;81.40;6.90;97783.00;;;;5054237;28;20204;-86
2022/01/25 11:06:39;;;;;;;16.53;10.33;;;6.70;81.00;6.90;97785.00;;;;5052565;28;20303;-86
2022/01/25 11:09:11;;;;;;;16.10;10.93;;;6.70;81.00;6.90;97784.00;;;;5065280;28;20188;-86
2022/01/25 11:11:45;;;;;;;14.97;10.20;;;6.70;81.40;6.90;97784.00;;;;5060018;28;20223;-86
2022/01/25 11:16:59;;;;;;;13.90;9.30;;;6.70;81.50;6.90;97787.00;;;;5053080;28;20603;-86
2022/01/25 11:19:27;;;;;;;13.87;9.37;;;6.70;81.40;6.90;97791.00;;;;5053364;28;20195;-86
2022/01/25 11:21:59;;;;;;;14.67;9.63;;;6.70;81.30;6.90;97782.00;;;;5053625;28;20216;-85
2022/01/25 11:24:29;;;;;;;12.90;9.10;;;6.70;80.80;6.90;97779.00;;;;5052994;28;20197;-86
2022/01/25 11:27:00;;;;;;;12.53;8.70;;;6.70;80.40;6.90;97772.00;;;;5033972;28;20237;-86
2022/01/25 11:29:28;;;;;;;13.17;9.27;;;6.70;81.00;7.00;97768.00;;;;5052555;28;20523;-84
2022/01/25 11:32:02;;;;;;;14.27;10.07;;;6.80;81.40;7.00;97758.00;;;;5042090;28;20658;-86
2022/01/25 11:34:32;;;;;;;14.13;9.30;;;6.80;80.70;7.00;97754.00;;;;5051069;28;20284;-85
2022/01/25 11:37:04;;;;;;;13.87;9.50;;;6.80;81.00;7.00;97747.00;;;;5052346;28;20216;-87
2022/01/25 11:39:33;;;;;;;14.30;9.10;;;6.70;80.40;7.00;97731.00;;;;5052839;28;20201;-85
2022/01/25 11:42:07;;;;;;;13.83;9.40;;;6.80;80.70;7.00;97748.00;;;;5051769;28;20577;-85
2022/01/25 11:44:35;;;;;;;13.90;9.57;;;6.80;80.00;7.00;97755.00;;;;5058695;28;20283;-85
2022/01/25 11:47:11;;;;;;;13.27;9.30;;;6.80;80.40;7.00;97748.00;;;;5052617;28;20196;-87
2022/01/25 11:49:53;;;;;;;14.07;9.37;;;6.80;80.20;7.00;97751.00;;;;5060642;28;20199;-85
2022/01/25 11:52:24;;;;;;;14.37;9.77;;;6.80;80.30;7.10;97749.00;;;;5058990;28;20228;-85
2022/01/25 11:54:54;;;;;;;14.03;10.10;;;7.00;80.60;7.10;97749.00;;;;5051592;28;20192;-86
2022/01/25 11:57:25;;;;;;;15.30;9.30;;;7.00;81.30;7.10;97748.00;;;;5060588;28;20605;-85
2022/01/25 11:59:56;;;;;;;15.67;9.97;;;6.90;80.80;7.20;97740.00;;;;5050055;28;20197;-84
2022/01/25 12:02:43;;;;;;;14.30;9.83;;;6.90;80.90;7.30;97745.00;;;;5053715;28;20219;-84
2022/01/25 12:05:14;;;;;;;17.60;11.30;;;7.00;81.00;7.30;97731.00;;;;5061757;28;20203;-84
2022/01/25 12:08:08;;;;;;;14.33;9.87;;;7.00;81.60;7.40;97739.00;;;;5070859;28;20222;-85
2022/01/25 12:10:40;;;;;;;15.17;10.47;;;7.10;80.80;7.50;97733.00;;;;5032845;28;20227;-85
2022/01/25 12:13:13;;;;;;;16.13;10.50;;;7.10;81.30;7.50;97733.00;;;;5041606;28;20201;-84
2022/01/25 12:15:40;;;;;;;16.20;10.60;;;7.20;81.10;7.60;97729.00;;;;5051413;28;20189;-83
2022/01/25 12:18:11;;;;;;;16.47;10.37;;;7.20;81.50;7.60;97730.00;;;;5038476;28;20208;-82
2022/01/25 12:20:49;;;;;;;13.37;10.00;;;7.20;81.20;7.60;97741.00;;;;5047812;28;20247;-83
2022/01/25 12:23:20;;;;;;;15.93;10.37;;;7.30;80.70;7.70;97744.00;;;;5053099;28;20203;-83